Map

Track Data

SID SEASON NUMBER BASIN SUBBASIN NAME ISO_TIME NATURE LAT LON WMO_WIND WMO_PRES WMO_AGENCY TRACK_TYPE DIST2LAND LANDFALL IFLAG USA_AGENCY USA_ATCF_ID USA_LAT USA_LON USA_RECORD USA_STATUS USA_WIND USA_PRES USA_SSHS USA_R34_NE USA_R34_SE USA_R34_SW USA_R34_NW USA_R50_NE USA_R50_SE USA_R50_SW USA_R50_NW USA_R64_NE USA_R64_SE USA_R64_SW USA_R64_NW USA_POCI USA_ROCI USA_RMW USA_EYE TOKYO_LAT TOKYO_LON TOKYO_GRADE TOKYO_WIND TOKYO_PRES TOKYO_R50_DIR TOKYO_R50_LONG TOKYO_R50_SHORT TOKYO_R30_DIR TOKYO_R30_LONG TOKYO_R30_SHORT TOKYO_LAND CMA_LAT CMA_LON CMA_CAT CMA_WIND CMA_PRES HKO_LAT HKO_LON HKO_CAT HKO_WIND HKO_PRES NEWDELHI_LAT NEWDELHI_LON NEWDELHI_GRADE NEWDELHI_WIND NEWDELHI_PRES NEWDELHI_CI NEWDELHI_DP NEWDELHI_POCI REUNION_LAT REUNION_LON REUNION_TYPE REUNION_WIND REUNION_PRES REUNION_TNUM REUNION_CI REUNION_RMW REUNION_R34_NE REUNION_R34_SE REUNION_R34_SW REUNION_R34_NW REUNION_R50_NE REUNION_R50_SE REUNION_R50_SW REUNION_R50_NW REUNION_R64_NE REUNION_R64_SE REUNION_R64_SW REUNION_R64_NW BOM_LAT BOM_LON BOM_TYPE BOM_WIND BOM_PRES BOM_TNUM BOM_CI BOM_RMW BOM_R34_NE BOM_R34_SE BOM_R34_SW BOM_R34_NW BOM_R50_NE BOM_R50_SE BOM_R50_SW BOM_R50_NW BOM_R64_NE BOM_R64_SE BOM_R64_SW BOM_R64_NW BOM_ROCI BOM_POCI BOM_EYE BOM_POS_METHOD BOM_PRES_METHOD NADI_LAT NADI_LON NADI_CAT NADI_WIND NADI_PRES WELLINGTON_LAT WELLINGTON_LON WELLINGTON_WIND WELLINGTON_PRES DS824_LAT DS824_LON DS824_STAGE DS824_WIND DS824_PRES TD9636_LAT TD9636_LON TD9636_STAGE TD9636_WIND TD9636_PRES TD9635_LAT TD9635_LON TD9635_WIND TD9635_PRES TD9635_ROCI NEUMANN_LAT NEUMANN_LON NEUMANN_CLASS NEUMANN_WIND NEUMANN_PRES MLC_LAT MLC_LON MLC_CLASS MLC_WIND MLC_PRES USA_GUST BOM_GUST BOM_GUST_PER REUNION_GUST REUNION_GUST_PER USA_SEAHGT USA_SEARAD_NE USA_SEARAD_SE USA_SEARAD_SW USA_SEARAD_NW STORM_SPEED STORM_DIR
1983279N04140 1983 67 WP MM JOE 1983-10-06 00:00:00 NR 3.90000 140.100 main 651 651 __________O___ -1 3.90000 140.100 0 4 29
1983279N04140 1983 67 WP MM JOE 1983-10-06 03:00:00 NR 4.06559 140.187 main 676 676 __________P___ -1 4.06559 140.187 0 4 25
1983279N04140 1983 67 WP MM JOE 1983-10-06 06:00:00 NR 4.23443 140.260 main 690 690 __________P___ -1 4.23443 140.260 0 4 19
1983279N04140 1983 67 WP MM JOE 1983-10-06 09:00:00 NR 4.40982 140.304 main 711 711 __________P___ -1 4.40982 140.304 0 4 6
1983279N04140 1983 67 WP MM JOE 1983-10-06 12:00:00 NR 4.59504 140.305 main 733 733 __________P___ -1 4.59504 140.305 0 4 352
1983279N04140 1983 67 WP MM JOE 1983-10-06 15:00:00 NR 4.79340 140.250 main 754 750 __________P___ -1 4.79340 140.250 0 5 336
1983279N04140 1983 67 WP MM JOE 1983-10-06 18:00:00 NR 5.00818 140.124 main 769 769 __________P___ -1 5.00818 140.124 0 6 323
1983279N04140 1983 67 WP MM JOE 1983-10-06 21:00:00 NR 5.24265 139.912 main 785 785 __________P___ -1 5.24265 139.912 0 7 313
1983279N04140 1983 67 WP MM JOE 1983-10-07 00:00:00 NR 5.50000 139.600 main 810 808 __________O___ -1 5.50000 139.600 0 9 307
1983279N04140 1983 67 WP MM JOE 1983-10-07 03:00:00 NR 5.78148 139.182 main 825 820 __________P___ -1 5.78148 139.182 0 11 303
1983279N04140 1983 67 WP MM JOE 1983-10-07 06:00:00 NR 6.08073 138.686 main 833 829 __________P___ -1 6.08073 138.686 0 12 301
1983279N04140 1983 67 WP MM JOE 1983-10-07 09:00:00 NR 6.38958 138.146 main 842 842 __________P___ -1 6.38958 138.146 0 12 300
1983279N04140 1983 67 WP MM JOE 1983-10-07 12:00:00 NR 6.70000 137.600 main 858 855 __________O___ -1 6.70000 137.600 0 12 301
1983279N04140 1983 67 WP MM JOE 1983-10-07 15:00:00 NR 6.98326 137.140 main 878 876 __________P___ -1 6.98326 137.140 0 11 302
1983279N04140 1983 67 WP MM JOE 1983-10-07 18:00:00 NR 7.26922 136.674 main 904 903 __________P___ -1 7.26922 136.674 0 11 301
1983279N04140 1983 67 WP MM JOE 1983-10-07 21:00:00 NR 7.57060 136.171 main 932 931 __________P___ -1 7.57060 136.171 0 12 301
1983279N04140 1983 67 WP MM JOE 1983-10-08 00:00:00 NR 7.90000 135.600 main 963 916 __________O___ -1 7.90000 135.600 0 14 299
1983279N04140 1983 67 WP MM JOE 1983-10-08 03:00:00 NR 8.27172 134.898 main 917 843 __________P___ -1 8.27172 134.898 0 17 299
1983279N04140 1983 67 WP MM JOE 1983-10-08 06:00:00 NR 8.69657 134.124 main 833 764 O_________P___ jtwc_wp WP151983 8.80000 134.100 20 -1 8.67071 134.130 0 17 298
1983279N04140 1983 67 WP MM JOE 1983-10-08 09:00:00 NR 9.09795 133.343 main 754 690 P_________P___ WP151983 9.12535 133.335 20 -1 9.08425 133.348 0 17 298
1983279N04140 1983 67 WP MM JOE 1983-10-08 12:00:00 NR 9.50000 132.600 main 690 637 O_________O___ jtwc_wp WP151983 9.50000 132.600 20 -1 9.50000 132.600 1 20 16 301
1983279N04140 1983 67 WP MM JOE 1983-10-08 15:00:00 NR 9.93888 131.928 main 627 575 P_________P___ WP151983 9.94986 131.920 20 -1 9.92789 131.937 1 20 15 305
1983279N04140 1983 67 WP MM JOE 1983-10-08 18:00:00 NR 10.3759 131.309 main 575 531 O_________P___ jtwc_wp WP151983 10.4000 131.300 20 -1 10.3519 131.318 1 20 14 305
1983279N04140 1983 67 WP MM JOE 1983-10-08 21:00:00 NR 10.7649 130.734 main 524 480 P_________P___ WP151983 10.7799 130.727 20 -1 10.7499 130.740 1 20 13 304
1983279N04140 1983 67 WP MM JOE 1983-10-09 00:00:00 NR 11.1000 130.200 main 480 427 O_________O___ jtwc_wp WP151983 11.1000 130.200 20 -1 11.1000 130.200 1 20 12 300
1983279N04140 1983 67 WP MM JOE 1983-10-09 03:00:00 NR 11.3675 129.689 main 428 389 P_________P___ WP151983 11.3724 129.685 20 -1 11.3625 129.692 1 20 11 307
1983279N04140 1983 67 WP MM JOE 1983-10-09 06:00:00 TS 11.7463 129.319 1004 tokyo main 389 356 OO________P___ jtwc_wp WP151983 11.6000 129.200 20 -1 13.0000 130.200 2 1004 0 0 0 11.5792 129.219 1 20 10 313
1983279N04140 1983 67 WP MM JOE 1983-10-09 09:00:00 TS 12.0630 128.924 main 359 337 PP________P___ WP151983 11.7999 128.742 20 -1 13.1527 129.613 2 1003 0 0 11.7813 128.761 1 20 10 311
1983279N04140 1983 67 WP MM JOE 1983-10-09 12:00:00 TS 12.4083 128.533 1002 tokyo main 326 287 OOO_______O___ jtwc_wp WP151983 12.0000 128.300 20 -1 13.3000 129.000 2 1002 0 0 0 13.0000 129.000 0 19 1004 12.0000 128.300 1 20 11 310
1983279N04140 1983 67 WP MM JOE 1983-10-09 15:00:00 TS 12.7324 128.095 main 287 255 PPP_______P___ WP151983 12.2274 127.865 22 -1 13.4424 128.350 2 1001 0 0 13.2724 128.555 0 21 1004 12.2575 127.839 1 22 11 306
1983279N04140 1983 67 WP MM JOE 1983-10-09 18:00:00 TS 13.0472 127.642 1000 tokyo main 244 212 OOOO______P___ jtwc_wp WP151983 12.5000 127.400 25 -1 13.6000 127.700 2 1000 0 0 0 13.5000 128.000 1 23 1004 13.7000 128.400 TD 25 1000 12.5390 127.366 1 25 11 302
1983279N04140 1983 67 WP MM JOE 1983-10-09 21:00:00 TS 13.3408 127.100 main 212 187 PPPP______P___ WP151983 12.8274 126.872 27 -1 13.7998 127.093 2 1000 0 0 13.6577 127.272 1 23 1003 13.7954 127.703 TD 25 1000 12.8510 126.860 1 27 13 297
1983279N04140 1983 67 WP MM JOE 1983-10-10 00:00:00 TS 13.6053 126.495 1000 tokyo main 187 161 OOOO______O___ jtwc_wp WP151983 13.2000 126.300 30 -1 14.0000 126.500 2 1000 0 0 0 13.8000 126.500 1 23 1002 13.9000 127.000 TD 25 1000 13.2000 126.300 1 30 13 294
1983279N04140 1983 67 WP MM JOE 1983-10-10 03:00:00 TS 13.8704 125.886 main 161 99 PPPP______P___ WP151983 13.5847 125.737 30 -1 14.1499 125.900 2 1000 0 0 13.9846 125.850 1 26 1001 14.0274 126.292 TD 27 1000 13.6056 125.650 1 30 13 294
1983279N04140 1983 67 WP MM JOE 1983-10-10 06:00:00 TS 14.1486 125.229 1000 tokyo main 89 55 OOOO______P___ jtwc_wp WP151983 14.0000 125.100 30 -1 14.3000 125.300 2 1000 0 0 0 14.2000 125.200 1 29 1000 14.2000 125.600 TD 30 1000 14.0429 124.946 1 30 14 294
1983279N04140 1983 67 WP MM JOE 1983-10-10 09:00:00 TS 14.4622 124.525 main 59 57 PPPP______P___ WP151983 14.4577 124.315 30 -1 14.4773 124.707 2 1000 0 0 14.4576 124.443 1 29 1000 14.4348 124.942 TD 30 1000 14.4837 124.219 1 30 15 295
1983279N04140 1983 67 WP MM JOE 1983-10-10 12:00:00 TS 14.7800 123.820 1000 tokyo main 95 95 OOOO______O___ jtwc_wp WP151983 14.9000 123.500 30 -1 14.7000 124.100 2 1000 0 0 0 14.7000 123.700 1 29 1000 14.7000 124.300 TD 30 1000 14.9000 123.500 1 30 15 295
1983279N04140 1983 67 WP MM JOE 1983-10-10 15:00:00 TS 15.0731 123.153 main 105 94 PPPP______P___ WP151983 15.2723 122.770 30 -1 14.9999 123.458 2 1000 0 0 14.8498 123.062 1 29 1000 14.9499 123.642 TD 30 1000 15.2936 122.832 1 30 14 294
1983279N04140 1983 67 WP MM JOE 1983-10-10 18:00:00 TS 15.3508 122.516 1000 tokyo main 85 44 OOOO______P___ jtwc_wp WP151983 15.6000 122.100 30 -1 15.3000 122.800 2 1000 0 0 0 15.0000 122.500 1 29 1000 15.2000 123.000 TD 30 1000 15.6540 122.178 1 30 13 295
1983279N04140 1983 67 WP MM JOE 1983-10-10 21:00:00 TS 15.6181 121.927 main 34 0 PPPP______P___ WP151983 15.9371 121.492 30 -1 15.5072 122.165 2 999 0 0 15.2345 122.022 1 33 999 15.4495 122.422 TD 30 1000 15.9624 121.535 1 30 13 294
1983279N04140 1983 67 WP MM JOE 1983-10-11 00:00:00 TS 15.8600 121.320 45 998 tokyo main 0 0 OOOO______O___ jtwc_wp WP151983 16.2000 120.900 30 -1 15.7000 121.500 3 45 998 0 9 200 200 0 15.5000 121.500 2 38 998 15.7000 121.800 TD 30 1000 16.2000 120.900 1 30 13 289
1983279N04140 1983 67 WP MM JOE 1983-10-11 03:00:00 TS 16.0644 120.611 main 0 0 PPPP______P___ WP151983 16.3374 120.250 30 -1 15.9499 120.765 3 45 997 0 9 225 225 15.7503 120.765 2 38 998 15.9502 121.015 TD 30 998 16.3342 120.258 1 31 14 285
1983279N04140 1983 67 WP MM JOE 1983-10-11 06:00:00 TS 16.2404 119.885 45 996 tokyo main 0 0 OOOO______P___ jtwc_wp WP151983 16.4000 119.600 30 -1 16.2000 120.000 3 45 996 0 9 250 250 0 16.0000 120.000 2 38 998 16.2000 120.200 TD 30 997 16.4019 119.626 1 32 14 284
1983279N04140 1983 67 WP MM JOE 1983-10-11 09:00:00 TS 16.4074 119.225 main 65 65 PPPP______P___ WP151983 16.4498 118.992 32 -1 16.4074 119.235 3 45 994 0 9 250 250 16.2644 119.400 2 38 996 16.4720 119.493 TD 30 995 16.4436 119.005 1 33 13 284
1983279N04140 1983 67 WP MM JOE 1983-10-11 12:00:00 TS 16.5600 118.580 45 992 tokyo main 132 132 OOOO______O___ jtwc_wp WP151983 16.5000 118.400 35 0 16.6000 118.500 3 45 992 0 9 250 250 0 16.5000 118.800 2 38 995 16.7000 118.800 TD 30 993 16.5000 118.400 2 35 13 283
1983279N04140 1983 67 WP MM JOE 1983-10-11 15:00:00 TS 16.7020 117.899 main 207 207 PPPP______P___ WP151983 16.5774 117.792 37 0 16.8297 117.828 3 45 991 0 9 275 225 16.6726 118.057 2 43 993 16.8225 118.035 TD 35 992 16.6079 117.782 2 37 13 282
1983279N04140 1983 67 WP MM JOE 1983-10-11 18:00:00 TS 16.8280 117.236 45 990 tokyo main 281 281 OOOO______P___ jtwc_wp WP151983 16.7000 117.200 40 0 17.0000 117.200 3 45 990 0 8 300 200 0 16.8000 117.300 3 48 992 16.9000 117.300 TS 40 991 16.7399 117.182 2 40 13 280
1983279N04140 1983 67 WP MM JOE 1983-10-11 21:00:00 TS 16.9298 116.604 main 345 345 PPPP______P___ WP151983 16.8775 116.620 42 0 16.9850 116.554 3 47 990 0 8 300 200 16.9000 116.582 3 48 991 16.9848 116.647 TS 42 990 16.9018 116.616 2 42 12 282
1983279N04140 1983 67 WP MM JOE 1983-10-12 00:00:00 TS 17.0600 116.060 50 990 tokyo main 403 403 OOOO______O___ jtwc_wp WP151983 17.1000 116.100 45 0 17.0000 116.000 4 50 990 0 8 300 200 0 17.0000 116.000 3 48 990 17.1000 116.100 TS 45 990 17.1000 116.100 2 45 10 290
1983279N04140 1983 67 WP MM JOE 1983-10-12 03:00:00 TS 17.2557 115.649 main 460 460 PPPP______P___ WP151983 17.3348 115.677 47 0 17.2621 115.628 4 50 987 0 8 300 200 17.0971 115.662 3 53 989 17.2623 115.662 TS 45 989 17.3224 115.617 2 46 9 302
1983279N04140 1983 67 WP MM JOE 1983-10-12 06:00:00 TS 17.5164 115.298 50 985 tokyo main 497 457 OOOO______P___ jtwc_wp WP151983 17.6000 115.300 50 0 17.6000 115.300 4 50 985 0 8 300 200 0 17.3000 115.400 3 58 988 17.5000 115.300 TS 45 989 17.5820 115.188 2 47 9 309
1983279N04140 1983 67 WP MM JOE 1983-10-12 09:00:00 TS 17.8362 114.894 main 457 400 PPPP______P___ WP151983 17.8850 114.878 50 0 17.8650 114.865 4 50 985 0 8 300 200 17.7276 114.993 3 58 986 17.8275 114.920 TS 47 988 17.8757 114.814 2 48 10 312
1983279N04140 1983 67 WP MM JOE 1983-10-12 12:00:00 TS 18.1800 114.520 50 985 tokyo main 400 358 OOOO______O___ jtwc_wp WP151983 18.2000 114.500 50 0 18.1000 114.400 4 50 985 0 8 300 200 0 18.2000 114.600 3 58 985 18.2000 114.600 STS 50 988 18.2000 114.500 2 50 9 314
1983279N04140 1983 67 WP MM JOE 1983-10-12 15:00:00 TS 18.4756 114.204 main 358 327 PPPP______P___ WP151983 18.5349 114.212 52 0 18.2552 113.882 4 50 985 0 8 300 200 18.5149 114.320 3 58 985 18.5424 114.362 STS 50 987 18.5307 114.245 2 52 8 320
1983279N04140 1983 67 WP MM JOE 1983-10-12 18:00:00 TS 18.7983 113.969 50 985 tokyo main 327 297 OOOO______P___ jtwc_wp WP151983 18.9000 114.000 55 0 18.5000 113.500 4 50 985 0 8 300 200 0 18.8000 114.100 3 58 985 18.9000 114.200 STS 50 987 18.8915 114.045 2 55 8 334
1983279N04140 1983 67 WP MM JOE 1983-10-12 21:00:00 TS 19.1923 113.832 main 297 267 PPPP______P___ WP151983 19.2849 113.842 57 0 18.9973 113.447 4 50 982 0 8 275 150 19.1125 113.885 3 58 985 19.2849 114.115 STS 55 986 19.2817 113.872 2 57 9 344
1983279N04140 1983 67 WP MM JOE 1983-10-13 00:00:00 TS 19.6400 113.720 50 980 tokyo main 267 210 OOOO______O___ jtwc_wp WP151983 19.7000 113.700 60 0 19.6000 113.500 4 50 980 0 2 250 100 0 19.5000 113.700 3 58 985 19.7000 114.000 STS 60 985 19.7000 113.700 2 60 10 345
1983279N04140 1983 67 WP MM JOE 1983-10-13 03:00:00 TS 20.1254 113.562 main 210 151 PPPP______P___ WP151983 20.1424 113.530 62 0 20.1574 113.445 4 50 977 0 2 250 100 20.0349 113.572 3 58 985 20.1500 113.738 STS 65 977 20.1425 113.524 2 62 10 340
1983279N04140 1983 67 WP MM JOE 1983-10-13 06:00:00 TS 20.6200 113.340 50 975 tokyo main 148 90 OOOO______O___ jtwc_wp WP151983 20.6000 113.300 65 1 20.7000 113.300 4 50 975 0 2 250 100 0 20.6000 113.400 3 58 985 20.6000 113.400 T 70 970 20.6000 113.300 3 65 11 333
1983279N04140 1983 67 WP MM JOE 1983-10-13 09:00:00 TS 21.0844 113.037 main 88 35 PPPP______P___ WP151983 21.0574 112.995 65 1 21.2225 113.038 4 52 975 0 2 225 100 21.0799 113.102 3 58 985 21.0074 113.065 T 70 970 21.0548 112.984 3 65 11 325
1983279N04140 1983 67 WP MM JOE 1983-10-13 12:00:00 TS 21.5200 112.660 55 975 tokyo main 35 0 OOOO______O___ jtwc_wp WP151983 21.5000 112.600 65 1 21.7000 112.700 4 55 975 9 30 30 3 200 100 0 21.5000 112.700 3 58 985 21.4000 112.700 T 70 970 21.5000 112.600 4 65 11 318
1983279N04140 1983 67 WP MM JOE 1983-10-13 15:00:00 TS 21.9312 112.226 main 0 0 PPPP______P___ WP151983 21.9077 112.107 57 0 22.1299 112.372 4 47 982 9 3 150 100 21.9029 112.170 3 53 990 21.7925 112.300 T 60 980 21.9233 112.179 4 55 11 315
1983279N04140 1983 67 WP MM JOE 1983-10-13 18:00:00 TS 22.3176 111.800 40 990 tokyo main 0 0 OOOO______P___ jtwc_wp WP151983 22.3000 111.600 50 0 22.5000 112.000 3 40 990 0 9 100 100 0 22.2000 111.700 3 48 995 22.2000 111.900 STS 50 990 22.3271 111.734 4 45 11 315
1983279N04140 1983 67 WP MM JOE 1983-10-13 21:00:00 TS 22.6692 111.416 main 0 0 PPPP______P___ WP151983 22.6975 111.173 37 0 22.8078 111.520 3 995 0 9 22.3447 111.472 3 38 999 22.6401 111.538 STS 37 998 22.7173 111.272 4 35 10 315
1983279N04140 1983 67 WP MM JOE 1983-10-14 00:00:00 TS 23.0000 111.071 1000 tokyo main 0 0 OOOO______O___ jtwc_wp WP151983 23.1000 110.800 25 -1 23.1000 111.100 2 1000 0 0 0 22.4000 111.400 1 29 1004 23.1000 111.200 TD 25 1006 23.1000 110.800 1 25 9 327
1983279N04140 1983 67 WP MM JOE 1983-10-14 03:00:00 TS 23.4348 110.885 main 0 0 _P____________ WP151983 -1 23.4348 110.885 2 1004 0 0 1 TD 1 8 343
1983279N04140 1983 67 WP MM JOE 1983-10-14 06:00:00 TS 23.8000 110.800 1008 tokyo main 0 _O____________ -1 23.8000 110.800 2 1008 0 0 0 1 8 348

Digital Typhoon Data and Search

About IBTrACS Database

This database is a web-friendly format of International Best Track Archive for Climate Stewardship (IBTrACS), a global best track data archive curated by NOAA dating back to 1842.

Updated: 2021-10-19